sensor_id;sensor_type;location;lat;lon;timestamp;temperature;humidity
11474;DHT22;5793;52.238;13.438;2022-08-21T00:00:01;18.90;99.90
11474;DHT22;5793;52.238;13.438;2022-08-21T00:02:30;19.00;99.90
11474;DHT22;5793;52.238;13.438;2022-08-21T00:04:58;19.10;99.90
11474;DHT22;5793;52.238;13.438;2022-08-21T00:07:26;19.10;99.90
11474;DHT22;5793;52.238;13.438;2022-08-21T00:09:54;19.20;99.90
11474;DHT22;5793;52.238;13.438;2022-08-21T00:12:23;19.20;99.90
11474;DHT22;5793;52.238;13.438;2022-08-21T00:14:51;19.20;99.90
11474;DHT22;5793;52.238;13.438;2022-08-21T00:17:23;19.20;99.90
11474;DHT22;5793;52.238;13.438;2022-08-21T00:19:51;19.10;99.90
11474;DHT22;5793;52.238;13.438;2022-08-21T00:22:19;19.00;99.90
11474;DHT22;5793;52.238;13.438;2022-08-21T00:24:46;18.90;99.90
11474;DHT22;5793;52.238;13.438;2022-08-21T00:27:14;19.00;99.90
11474;DHT22;5793;52.238;13.438;2022-08-21T00:29:43;19.00;99.90
11474;DHT22;5793;52.238;13.438;2022-08-21T00:32:11;19.00;99.90
11474;DHT22;5793;52.238;13.438;2022-08-21T00:34:39;19.00;99.90
11474;DHT22;5793;52.238;13.438;2022-08-21T00:37:07;19.00;99.90
11474;DHT22;5793;52.238;13.438;2022-08-21T00:39:35;19.00;99.90
11474;DHT22;5793;52.238;13.438;2022-08-21T00:42:03;19.00;99.90
11474;DHT22;5793;52.238;13.438;2022-08-21T00:44:31;19.00;99.90
11474;DHT22;5793;52.238;13.438;2022-08-21T00:47:00;19.00;99.90
11474;DHT22;5793;52.238;13.438;2022-08-21T00:49:28;19.00;99.90
11474;DHT22;5793;52.238;13.438;2022-08-21T00:52:00;19.00;99.90
11474;DHT22;5793;52.238;13.438;2022-08-21T00:54:30;19.00;99.90
11474;DHT22;5793;52.238;13.438;2022-08-21T00:57:01;19.00;99.90
11474;DHT22;5793;52.238;13.438;2022-08-21T00:59:33;19.00;99.90
11474;DHT22;5793;52.238;13.438;2022-08-21T01:02:04;18.90;99.90
11474;DHT22;5793;52.238;13.438;2022-08-21T01:04:34;19.00;99.90
11474;DHT22;5793;52.238;13.438;2022-08-21T01:07:02;19.00;99.90
11474;DHT22;5793;52.238;13.438;2022-08-21T01:09:30;19.00;99.90
11474;DHT22;5793;52.238;13.438;2022-08-21T01:11:58;19.00;99.90
11474;DHT22;5793;52.238;13.438;2022-08-21T01:14:27;19.00;99.90
11474;DHT22;5793;52.238;13.438;2022-08-21T01:16:55;19.00;99.90
11474;DHT22;5793;52.238;13.438;2022-08-21T01:19:26;19.00;99.90
11474;DHT22;5793;52.238;13.438;2022-08-21T01:21:55;19.10;99.90
11474;DHT22;5793;52.238;13.438;2022-08-21T01:24:23;19.00;99.90
11474;DHT22;5793;52.238;13.438;2022-08-21T01:26:51;19.10;99.90
11474;DHT22;5793;52.238;13.438;2022-08-21T01:29:37;19.00;99.90
11474;DHT22;5793;52.238;13.438;2022-08-21T01:32:10;19.00;99.90
11474;DHT22;5793;52.238;13.438;2022-08-21T01:34:41;19.00;99.90
11474;DHT22;5793;52.238;13.438;2022-08-21T01:37:11;18.90;99.90
11474;DHT22;5793;52.238;13.438;2022-08-21T01:39:39;19.00;99.90
11474;DHT22;5793;52.238;13.438;2022-08-21T01:42:09;18.90;99.90
11474;DHT22;5793;52.238;13.438;2022-08-21T01:44:36;18.90;99.90
11474;DHT22;5793;52.238;13.438;2022-08-21T01:47:08;18.90;99.90
11474;DHT22;5793;52.238;13.438;2022-08-21T01:49:36;18.90;99.90
11474;DHT22;5793;52.238;13.438;2022-08-21T01:52:05;18.90;99.90
11474;DHT22;5793;52.238;13.438;2022-08-21T01:54:36;18.80;99.90
11474;DHT22;5793;52.238;13.438;2022-08-21T01:57:08;18.80;99.90
11474;DHT22;5793;52.238;13.438;2022-08-21T01:59:36;18.80;99.90
11474;DHT22;5793;52.238;13.438;2022-08-21T02:02:05;18.80;99.90
11474;DHT22;5793;52.238;13.438;2022-08-21T02:04:33;18.80;99.90
11474;DHT22;5793;52.238;13.438;2022-08-21T02:07:01;18.70;99.90
11474;DHT22;5793;52.238;13.438;2022-08-21T02:09:33;18.70;99.90
11474;DHT22;5793;52.238;13.438;2022-08-21T02:12:07;18.70;99.90
11474;DHT22;5793;52.238;13.438;2022-08-21T02:14:35;18.70;99.90
11474;DHT22;5793;52.238;13.438;2022-08-21T02:17:04;18.70;99.90
11474;DHT22;5793;52.238;13.438;2022-08-21T02:19:35;18.60;99.90
11474;DHT22;5793;52.238;13.438;2022-08-21T02:22:07;18.60;99.90
11474;DHT22;5793;52.238;13.438;2022-08-21T02:24:35;18.50;99.90
11474;DHT22;5793;52.238;13.438;2022-08-21T02:27:22;18.50;99.90
11474;DHT22;5793;52.238;13.438;2022-08-21T02:29:53;18.50;99.90
11474;DHT22;5793;52.238;13.438;2022-08-21T02:32:21;18.50;99.90
11474;DHT22;5793;52.238;13.438;2022-08-21T02:34:49;18.50;99.90
11474;DHT22;5793;52.238;13.438;2022-08-21T02:37:16;18.50;99.90
11474;DHT22;5793;52.238;13.438;2022-08-21T02:39:44;18.50;99.90
11474;DHT22;5793;52.238;13.438;2022-08-21T02:42:12;18.50;99.90
11474;DHT22;5793;52.238;13.438;2022-08-21T02:44:41;18.40;99.90
11474;DHT22;5793;52.238;13.438;2022-08-21T02:47:09;18.40;99.90
11474;DHT22;5793;52.238;13.438;2022-08-21T02:49:37;18.40;99.90
11474;DHT22;5793;52.238;13.438;2022-08-21T02:52:05;18.30;99.90
11474;DHT22;5793;52.238;13.438;2022-08-21T02:54:33;18.30;99.90
11474;DHT22;5793;52.238;13.438;2022-08-21T02:57:03;18.30;99.90
11474;DHT22;5793;52.238;13.438;2022-08-21T02:59:31;18.30;99.90
11474;DHT22;5793;52.238;13.438;2022-08-21T03:02:00;18.30;99.90
11474;DHT22;5793;52.238;13.438;2022-08-21T03:04:27;18.30;99.90
11474;DHT22;5793;52.238;13.438;2022-08-21T03:06:55;18.30;99.90
11474;DHT22;5793;52.238;13.438;2022-08-21T03:09:23;18.20;99.90
11474;DHT22;5793;52.238;13.438;2022-08-21T03:11:51;18.20;99.90
11474;DHT22;5793;52.238;13.438;2022-08-21T03:14:20;18.10;99.90
11474;DHT22;5793;52.238;13.438;2022-08-21T03:16:47;18.20;99.90
11474;DHT22;5793;52.238;13.438;2022-08-21T03:19:17;18.10;99.90
11474;DHT22;5793;52.238;13.438;2022-08-21T03:21:45;18.00;99.90
11474;DHT22;5793;52.238;13.438;2022-08-21T03:24:13;17.90;99.90
11474;DHT22;5793;52.238;13.438;2022-08-21T03:26:43;17.90;99.90
11474;DHT22;5793;52.238;13.438;2022-08-21T03:29:11;17.90;99.90
11474;DHT22;5793;52.238;13.438;2022-08-21T03:31:39;17.90;99.90
11474;DHT22;5793;52.238;13.438;2022-08-21T03:34:07;17.90;99.90
11474;DHT22;5793;52.238;13.438;2022-08-21T03:36:36;17.90;99.90
11474;DHT22;5793;52.238;13.438;2022-08-21T03:39:04;17.90;99.90
11474;DHT22;5793;52.238;13.438;2022-08-21T03:41:32;17.80;99.90
11474;DHT22;5793;52.238;13.438;2022-08-21T03:43:59;17.80;99.90
11474;DHT22;5793;52.238;13.438;2022-08-21T03:46:27;17.80;99.90
11474;DHT22;5793;52.238;13.438;2022-08-21T03:48:55;17.70;99.90
11474;DHT22;5793;52.238;13.438;2022-08-21T03:51:23;17.70;99.90
11474;DHT22;5793;52.238;13.438;2022-08-21T03:53:52;17.60;99.90
11474;DHT22;5793;52.238;13.438;2022-08-21T03:56:20;17.60;99.90
11474;DHT22;5793;52.238;13.438;2022-08-21T03:58:48;17.60;99.90
11474;DHT22;5793;52.238;13.438;2022-08-21T04:01:16;17.60;99.90
11474;DHT22;5793;52.238;13.438;2022-08-21T04:03:44;17.60;99.90
11474;DHT22;5793;52.238;13.438;2022-08-21T04:06:12;17.50;99.90
11474;DHT22;5793;52.238;13.438;2022-08-21T04:08:39;17.50;99.90
11474;DHT22;5793;52.238;13.438;2022-08-21T04:11:10;17.40;99.90
11474;DHT22;5793;52.238;13.438;2022-08-21T04:13:38;17.40;99.90
11474;DHT22;5793;52.238;13.438;2022-08-21T04:16:10;17.50;99.90
11474;DHT22;5793;52.238;13.438;2022-08-21T04:18:38;17.40;99.90
11474;DHT22;5793;52.238;13.438;2022-08-21T04:21:07;17.40;99.90
11474;DHT22;5793;52.238;13.438;2022-08-21T04:23:36;17.40;99.90
11474;DHT22;5793;52.238;13.438;2022-08-21T04:26:04;17.30;99.90
11474;DHT22;5793;52.238;13.438;2022-08-21T04:28:34;17.30;99.90
11474;DHT22;5793;52.238;13.438;2022-08-21T04:31:02;17.30;99.90
11474;DHT22;5793;52.238;13.438;2022-08-21T04:33:30;17.30;99.90
11474;DHT22;5793;52.238;13.438;2022-08-21T04:35:58;17.40;99.90
11474;DHT22;5793;52.238;13.438;2022-08-21T04:38:26;17.30;99.90
11474;DHT22;5793;52.238;13.438;2022-08-21T04:41:03;17.20;99.90
11474;DHT22;5793;52.238;13.438;2022-08-21T04:43:32;17.20;99.90
11474;DHT22;5793;52.238;13.438;2022-08-21T04:46:01;17.20;99.90
11474;DHT22;5793;52.238;13.438;2022-08-21T04:48:29;17.20;99.90
11474;DHT22;5793;52.238;13.438;2022-08-21T04:51:00;17.10;99.90
11474;DHT22;5793;52.238;13.438;2022-08-21T04:53:33;17.10;99.90
11474;DHT22;5793;52.238;13.438;2022-08-21T04:56:03;17.10;99.90
11474;DHT22;5793;52.238;13.438;2022-08-21T04:58:34;17.10;99.90
11474;DHT22;5793;52.238;13.438;2022-08-21T05:01:07;17.20;99.90
11474;DHT22;5793;52.238;13.438;2022-08-21T05:03:36;17.20;99.90
11474;DHT22;5793;52.238;13.438;2022-08-21T05:06:07;17.20;99.90
11474;DHT22;5793;52.238;13.438;2022-08-21T05:08:37;17.20;99.90
11474;DHT22;5793;52.238;13.438;2022-08-21T05:11:06;17.30;99.90
11474;DHT22;5793;52.238;13.438;2022-08-21T05:13:35;17.20;99.90
11474;DHT22;5793;52.238;13.438;2022-08-21T05:16:05;17.40;99.90
11474;DHT22;5793;52.238;13.438;2022-08-21T05:18:33;17.40;99.90
11474;DHT22;5793;52.238;13.438;2022-08-21T05:21:01;17.40;99.90
11474;DHT22;5793;52.238;13.438;2022-08-21T05:23:29;17.40;99.90
11474;DHT22;5793;52.238;13.438;2022-08-21T05:25:57;17.40;99.90
11474;DHT22;5793;52.238;13.438;2022-08-21T05:28:25;17.60;99.90
11474;DHT22;5793;52.238;13.438;2022-08-21T05:30:53;17.70;99.90
11474;DHT22;5793;52.238;13.438;2022-08-21T05:33:22;17.70;99.90
11474;DHT22;5793;52.238;13.438;2022-08-21T05:35:51;17.70;99.90
11474;DHT22;5793;52.238;13.438;2022-08-21T05:38:19;17.80;99.90
11474;DHT22;5793;52.238;13.438;2022-08-21T05:40:47;17.80;99.90
11474;DHT22;5793;52.238;13.438;2022-08-21T05:43:15;17.90;99.90
11474;DHT22;5793;52.238;13.438;2022-08-21T05:45:43;17.90;99.90
11474;DHT22;5793;52.238;13.438;2022-08-21T05:48:14;18.00;99.90
11474;DHT22;5793;52.238;13.438;2022-08-21T05:50:45;18.00;99.90
11474;DHT22;5793;52.238;13.438;2022-08-21T05:53:14;18.10;99.90
11474;DHT22;5793;52.238;13.438;2022-08-21T05:55:43;18.10;99.90
11474;DHT22;5793;52.238;13.438;2022-08-21T05:58:13;18.10;99.90
11474;DHT22;5793;52.238;13.438;2022-08-21T06:00:42;18.10;99.90
11474;DHT22;5793;52.238;13.438;2022-08-21T06:03:14;18.20;99.90
11474;DHT22;5793;52.238;13.438;2022-08-21T06:05:45;18.20;99.90
11474;DHT22;5793;52.238;13.438;2022-08-21T06:08:13;18.30;99.90
11474;DHT22;5793;52.238;13.438;2022-08-21T06:10:41;18.40;99.90
11474;DHT22;5793;52.238;13.438;2022-08-21T06:13:10;18.40;99.90
11474;DHT22;5793;52.238;13.438;2022-08-21T06:15:38;18.40;99.90
11474;DHT22;5793;52.238;13.438;2022-08-21T06:18:06;18.50;99.90
11474;DHT22;5793;52.238;13.438;2022-08-21T06:20:34;18.50;99.90
11474;DHT22;5793;52.238;13.438;2022-08-21T06:23:04;18.50;99.90
11474;DHT22;5793;52.238;13.438;2022-08-21T06:25:32;18.70;99.90
11474;DHT22;5793;52.238;13.438;2022-08-21T06:28:01;18.70;99.90
11474;DHT22;5793;52.238;13.438;2022-08-21T06:30:29;18.80;99.90
11474;DHT22;5793;52.238;13.438;2022-08-21T06:32:57;19.00;99.90
11474;DHT22;5793;52.238;13.438;2022-08-21T06:35:25;19.00;99.90
11474;DHT22;5793;52.238;13.438;2022-08-21T06:37:56;19.10;99.90
11474;DHT22;5793;52.238;13.438;2022-08-21T06:40:26;19.20;99.90
11474;DHT22;5793;52.238;13.438;2022-08-21T06:42:56;19.20;99.90
11474;DHT22;5793;52.238;13.438;2022-08-21T06:45:25;19.30;99.90
11474;DHT22;5793;52.238;13.438;2022-08-21T06:47:53;19.40;99.90
11474;DHT22;5793;52.238;13.438;2022-08-21T06:50:21;19.40;99.90
11474;DHT22;5793;52.238;13.438;2022-08-21T06:52:49;19.50;99.90
11474;DHT22;5793;52.238;13.438;2022-08-21T06:55:17;19.70;99.90
11474;DHT22;5793;52.238;13.438;2022-08-21T06:57:49;19.70;99.90
11474;DHT22;5793;52.238;13.438;2022-08-21T07:00:19;19.80;99.90
11474;DHT22;5793;52.238;13.438;2022-08-21T07:02:46;19.80;99.90
11474;DHT22;5793;52.238;13.438;2022-08-21T07:05:14;19.90;99.90
11474;DHT22;5793;52.238;13.438;2022-08-21T07:07:44;20.00;99.90
11474;DHT22;5793;52.238;13.438;2022-08-21T07:10:12;20.10;99.90
11474;DHT22;5793;52.238;13.438;2022-08-21T07:12:49;20.20;99.90
11474;DHT22;5793;52.238;13.438;2022-08-21T07:15:27;20.30;99.90
11474;DHT22;5793;52.238;13.438;2022-08-21T07:17:56;20.30;99.90
11474;DHT22;5793;52.238;13.438;2022-08-21T07:20:25;20.30;99.90
11474;DHT22;5793;52.238;13.438;2022-08-21T07:22:53;20.30;99.90
11474;DHT22;5793;52.238;13.438;2022-08-21T07:25:21;20.40;99.90
11474;DHT22;5793;52.238;13.438;2022-08-21T07:27:50;20.60;99.90
11474;DHT22;5793;52.238;13.438;2022-08-21T07:30:18;20.60;99.90
11474;DHT22;5793;52.238;13.438;2022-08-21T07:32:46;20.60;99.90
11474;DHT22;5793;52.238;13.438;2022-08-21T07:35:15;20.70;99.90
11474;DHT22;5793;52.238;13.438;2022-08-21T07:37:43;20.80;99.90
11474;DHT22;5793;52.238;13.438;2022-08-21T07:40:12;20.80;99.90
11474;DHT22;5793;52.238;13.438;2022-08-21T07:42:41;20.90;99.90
11474;DHT22;5793;52.238;13.438;2022-08-21T07:45:11;20.90;99.90
11474;DHT22;5793;52.238;13.438;2022-08-21T07:47:39;20.90;99.90
11474;DHT22;5793;52.238;13.438;2022-08-21T07:50:09;20.70;99.90
11474;DHT22;5793;52.238;13.438;2022-08-21T07:52:38;20.60;99.90
11474;DHT22;5793;52.238;13.438;2022-08-21T07:55:07;20.70;99.90
11474;DHT22;5793;52.238;13.438;2022-08-21T07:57:35;20.80;99.90
11474;DHT22;5793;52.238;13.438;2022-08-21T08:00:04;21.00;99.90
11474;DHT22;5793;52.238;13.438;2022-08-21T08:02:34;21.10;99.90
11474;DHT22;5793;52.238;13.438;2022-08-21T08:05:03;21.30;99.90
11474;DHT22;5793;52.238;13.438;2022-08-21T08:07:32;21.80;99.90
11474;DHT22;5793;52.238;13.438;2022-08-21T08:10:00;22.00;99.90
11474;DHT22;5793;52.238;13.438;2022-08-21T08:12:28;22.60;99.90
11474;DHT22;5793;52.238;13.438;2022-08-21T08:14:56;23.00;99.90
11474;DHT22;5793;52.238;13.438;2022-08-21T08:17:24;23.40;99.90
11474;DHT22;5793;52.238;13.438;2022-08-21T08:19:53;23.50;99.90
11474;DHT22;5793;52.238;13.438;2022-08-21T08:22:23;23.50;99.90
11474;DHT22;5793;52.238;13.438;2022-08-21T08:24:51;23.60;99.90
11474;DHT22;5793;52.238;13.438;2022-08-21T08:27:20;23.60;99.90
11474;DHT22;5793;52.238;13.438;2022-08-21T08:29:49;23.70;99.90
11474;DHT22;5793;52.238;13.438;2022-08-21T08:32:18;23.70;99.90
11474;DHT22;5793;52.238;13.438;2022-08-21T08:34:46;23.80;99.90
11474;DHT22;5793;52.238;13.438;2022-08-21T08:37:17;24.00;99.90
11474;DHT22;5793;52.238;13.438;2022-08-21T08:39:48;23.70;99.90
11474;DHT22;5793;52.238;13.438;2022-08-21T08:42:22;23.50;99.90
11474;DHT22;5793;52.238;13.438;2022-08-21T08:45:03;23.40;99.90
11474;DHT22;5793;52.238;13.438;2022-08-21T08:47:33;23.30;99.90
11474;DHT22;5793;52.238;13.438;2022-08-21T08:50:04;23.30;99.90
11474;DHT22;5793;52.238;13.438;2022-08-21T08:52:36;23.20;99.90
11474;DHT22;5793;52.238;13.438;2022-08-21T08:55:12;23.10;99.90
11474;DHT22;5793;52.238;13.438;2022-08-21T08:57:44;23.00;99.90
11474;DHT22;5793;52.238;13.438;2022-08-21T09:00:18;22.90;99.90
11474;DHT22;5793;52.238;13.438;2022-08-21T09:02:47;22.90;99.90
11474;DHT22;5793;52.238;13.438;2022-08-21T09:05:22;22.80;99.90
11474;DHT22;5793;52.238;13.438;2022-08-21T09:08:08;22.70;99.90
11474;DHT22;5793;52.238;13.438;2022-08-21T09:10:51;22.70;99.90
11474;DHT22;5793;52.238;13.438;2022-08-21T09:13:27;22.60;99.90
11474;DHT22;5793;52.238;13.438;2022-08-21T09:16:09;22.60;99.90
11474;DHT22;5793;52.238;13.438;2022-08-21T09:18:48;22.60;99.90
11474;DHT22;5793;52.238;13.438;2022-08-21T09:21:24;22.60;99.90
11474;DHT22;5793;52.238;13.438;2022-08-21T09:24:01;22.70;99.90
11474;DHT22;5793;52.238;13.438;2022-08-21T09:26:39;22.80;99.90
11474;DHT22;5793;52.238;13.438;2022-08-21T09:29:11;23.00;99.90
11474;DHT22;5793;52.238;13.438;2022-08-21T09:31:39;23.10;99.90
11474;DHT22;5793;52.238;13.438;2022-08-21T09:34:10;23.10;99.90
11474;DHT22;5793;52.238;13.438;2022-08-21T09:36:41;23.50;99.90
11474;DHT22;5793;52.238;13.438;2022-08-21T09:39:27;23.60;99.90
11474;DHT22;5793;52.238;13.438;2022-08-21T09:41:57;23.80;99.90
11474;DHT22;5793;52.238;13.438;2022-08-21T09:44:28;24.10;99.90
11474;DHT22;5793;52.238;13.438;2022-08-21T09:46:56;24.40;99.90
11474;DHT22;5793;52.238;13.438;2022-08-21T09:49:28;24.50;99.90
11474;DHT22;5793;52.238;13.438;2022-08-21T09:51:57;24.60;99.90
11474;DHT22;5793;52.238;13.438;2022-08-21T09:54:30;24.70;99.90
11474;DHT22;5793;52.238;13.438;2022-08-21T09:57:01;24.90;99.90
11474;DHT22;5793;52.238;13.438;2022-08-21T09:59:50;25.00;99.90
11474;DHT22;5793;52.238;13.438;2022-08-21T10:02:27;25.10;99.90
11474;DHT22;5793;52.238;13.438;2022-08-21T10:04:57;25.20;99.90
11474;DHT22;5793;52.238;13.438;2022-08-21T10:07:28;25.10;99.90
11474;DHT22;5793;52.238;13.438;2022-08-21T10:10:04;25.20;99.90
11474;DHT22;5793;52.238;13.438;2022-08-21T10:12:42;25.30;99.90
11474;DHT22;5793;52.238;13.438;2022-08-21T10:15:19;25.60;99.90
11474;DHT22;5793;52.238;13.438;2022-08-21T10:17:56;25.80;99.90
11474;DHT22;5793;52.238;13.438;2022-08-21T10:20:30;25.70;99.90
11474;DHT22;5793;52.238;13.438;2022-08-21T10:23:10;25.30;99.90
11474;DHT22;5793;52.238;13.438;2022-08-21T10:25:49;25.30;99.90
11474;DHT22;5793;52.238;13.438;2022-08-21T10:28:44;25.80;99.90
11474;DHT22;5793;52.238;13.438;2022-08-21T10:31:18;26.40;99.90
11474;DHT22;5793;52.238;13.438;2022-08-21T10:33:57;27.10;99.90
11474;DHT22;5793;52.238;13.438;2022-08-21T10:36:34;27.90;98.10
11474;DHT22;5793;52.238;13.438;2022-08-21T10:39:13;29.20;93.10
11474;DHT22;5793;52.238;13.438;2022-08-21T10:42:21;30.10;87.50
11474;DHT22;5793;52.238;13.438;2022-08-21T10:45:03;30.90;80.00
11474;DHT22;5793;52.238;13.438;2022-08-21T10:47:37;31.20;77.90
11474;DHT22;5793;52.238;13.438;2022-08-21T10:50:14;31.20;72.90
11474;DHT22;5793;52.238;13.438;2022-08-21T10:53:01;30.80;70.10
11474;DHT22;5793;52.238;13.438;2022-08-21T10:55:36;30.50;73.40
11474;DHT22;5793;52.238;13.438;2022-08-21T10:58:09;29.90;70.50
11474;DHT22;5793;52.238;13.438;2022-08-21T11:00:43;28.90;75.70
11474;DHT22;5793;52.238;13.438;2022-08-21T11:03:16;28.40;73.80
11474;DHT22;5793;52.238;13.438;2022-08-21T11:05:50;28.00;76.50
11474;DHT22;5793;52.238;13.438;2022-08-21T11:08:23;27.60;78.30
11474;DHT22;5793;52.238;13.438;2022-08-21T11:10:59;27.80;78.40
11474;DHT22;5793;52.238;13.438;2022-08-21T11:13:38;27.90;78.20
11474;DHT22;5793;52.238;13.438;2022-08-21T11:16:14;27.60;78.60
11474;DHT22;5793;52.238;13.438;2022-08-21T11:18:46;27.30;75.30
11474;DHT22;5793;52.238;13.438;2022-08-21T11:21:27;26.80;78.30
11474;DHT22;5793;52.238;13.438;2022-08-21T11:24:02;26.50;70.80
11474;DHT22;5793;52.238;13.438;2022-08-21T11:26:38;26.30;74.50
11474;DHT22;5793;52.238;13.438;2022-08-21T11:29:13;25.80;74.10
11474;DHT22;5793;52.238;13.438;2022-08-21T11:32:00;25.70;75.30
11474;DHT22;5793;52.238;13.438;2022-08-21T11:34:38;25.80;70.20
11474;DHT22;5793;52.238;13.438;2022-08-21T11:37:14;25.70;71.80
11474;DHT22;5793;52.238;13.438;2022-08-21T11:39:54;25.60;76.70
11474;DHT22;5793;52.238;13.438;2022-08-21T11:42:30;25.70;71.50
11474;DHT22;5793;52.238;13.438;2022-08-21T11:45:09;25.80;74.60
11474;DHT22;5793;52.238;13.438;2022-08-21T11:47:49;25.80;72.50
11474;DHT22;5793;52.238;13.438;2022-08-21T11:50:24;25.90;73.90
11474;DHT22;5793;52.238;13.438;2022-08-21T11:53:07;25.80;71.70
11474;DHT22;5793;52.238;13.438;2022-08-21T11:55:40;25.80;74.80
11474;DHT22;5793;52.238;13.438;2022-08-21T11:58:14;25.90;75.50
11474;DHT22;5793;52.238;13.438;2022-08-21T12:00:48;26.00;75.80
11474;DHT22;5793;52.238;13.438;2022-08-21T12:03:24;26.10;75.00
11474;DHT22;5793;52.238;13.438;2022-08-21T12:05:55;26.30;77.40
11474;DHT22;5793;52.238;13.438;2022-08-21T12:08:30;26.30;75.50
11474;DHT22;5793;52.238;13.438;2022-08-21T12:11:01;26.40;77.20
11474;DHT22;5793;52.238;13.438;2022-08-21T12:13:31;26.20;76.00
11474;DHT22;5793;52.238;13.438;2022-08-21T12:16:11;26.10;75.20
11474;DHT22;5793;52.238;13.438;2022-08-21T12:18:41;26.00;76.30
11474;DHT22;5793;52.238;13.438;2022-08-21T12:21:23;26.10;73.80
11474;DHT22;5793;52.238;13.438;2022-08-21T12:24:01;26.00;72.50
11474;DHT22;5793;52.238;13.438;2022-08-21T12:26:32;26.00;72.30
11474;DHT22;5793;52.238;13.438;2022-08-21T12:29:21;26.10;76.40
11474;DHT22;5793;52.238;13.438;2022-08-21T12:31:58;26.20;76.20
11474;DHT22;5793;52.238;13.438;2022-08-21T12:34:33;26.20;76.30
11474;DHT22;5793;52.238;13.438;2022-08-21T12:37:04;26.30;77.20
11474;DHT22;5793;52.238;13.438;2022-08-21T12:39:36;26.30;73.60
11474;DHT22;5793;52.238;13.438;2022-08-21T12:42:11;26.30;73.20
11474;DHT22;5793;52.238;13.438;2022-08-21T12:44:46;26.30;71.00
11474;DHT22;5793;52.238;13.438;2022-08-21T12:47:23;26.30;72.60
11474;DHT22;5793;52.238;13.438;2022-08-21T12:49:56;26.30;71.50
11474;DHT22;5793;52.238;13.438;2022-08-21T12:52:30;26.20;71.20
11474;DHT22;5793;52.238;13.438;2022-08-21T12:55:06;26.10;72.80
11474;DHT22;5793;52.238;13.438;2022-08-21T12:57:36;26.20;75.50
11474;DHT22;5793;52.238;13.438;2022-08-21T13:00:07;26.30;72.40
11474;DHT22;5793;52.238;13.438;2022-08-21T13:02:42;26.30;74.10
11474;DHT22;5793;52.238;13.438;2022-08-21T13:05:13;26.30;70.80
11474;DHT22;5793;52.238;13.438;2022-08-21T13:07:46;26.30;72.10
11474;DHT22;5793;52.238;13.438;2022-08-21T13:10:18;26.40;73.30
11474;DHT22;5793;52.238;13.438;2022-08-21T13:12:48;26.40;73.70
11474;DHT22;5793;52.238;13.438;2022-08-21T13:15:23;26.40;71.90
11474;DHT22;5793;52.238;13.438;2022-08-21T13:18:01;26.30;74.10
11474;DHT22;5793;52.238;13.438;2022-08-21T13:20:31;26.20;73.50
11474;DHT22;5793;52.238;13.438;2022-08-21T13:23:00;26.00;75.60
11474;DHT22;5793;52.238;13.438;2022-08-21T13:25:33;25.80;74.60
11474;DHT22;5793;52.238;13.438;2022-08-21T13:28:05;25.70;79.50
11474;DHT22;5793;52.238;13.438;2022-08-21T13:30:34;25.60;77.20
11474;DHT22;5793;52.238;13.438;2022-08-21T13:33:06;25.50;79.20
11474;DHT22;5793;52.238;13.438;2022-08-21T13:35:48;25.40;79.80
11474;DHT22;5793;52.238;13.438;2022-08-21T13:38:17;25.20;80.30
11474;DHT22;5793;52.238;13.438;2022-08-21T13:40:55;25.00;80.30
11474;DHT22;5793;52.238;13.438;2022-08-21T13:43:27;24.80;84.00
11474;DHT22;5793;52.238;13.438;2022-08-21T13:45:56;24.60;86.20
11474;DHT22;5793;52.238;13.438;2022-08-21T13:48:27;24.60;81.70
11474;DHT22;5793;52.238;13.438;2022-08-21T13:50:56;24.60;82.50
11474;DHT22;5793;52.238;13.438;2022-08-21T13:53:29;24.50;87.30
11474;DHT22;5793;52.238;13.438;2022-08-21T13:55:58;24.40;85.90
11474;DHT22;5793;52.238;13.438;2022-08-21T13:58:30;24.40;83.10
11474;DHT22;5793;52.238;13.438;2022-08-21T14:00:59;24.30;85.50
11474;DHT22;5793;52.238;13.438;2022-08-21T14:03:41;24.20;83.30
11474;DHT22;5793;52.238;13.438;2022-08-21T14:06:15;24.10;87.00
11474;DHT22;5793;52.238;13.438;2022-08-21T14:08:49;24.10;90.50
11474;DHT22;5793;52.238;13.438;2022-08-21T14:11:18;24.20;84.60
11474;DHT22;5793;52.238;13.438;2022-08-21T14:13:49;24.20;88.00
11474;DHT22;5793;52.238;13.438;2022-08-21T14:16:20;24.20;89.20
11474;DHT22;5793;52.238;13.438;2022-08-21T14:18:54;24.20;88.80
11474;DHT22;5793;52.238;13.438;2022-08-21T14:21:35;24.30;87.30
11474;DHT22;5793;52.238;13.438;2022-08-21T14:24:08;24.30;88.60
11474;DHT22;5793;52.238;13.438;2022-08-21T14:26:43;24.20;89.00
11474;DHT22;5793;52.238;13.438;2022-08-21T14:29:13;24.40;88.90
11474;DHT22;5793;52.238;13.438;2022-08-21T14:31:41;24.40;87.70
11474;DHT22;5793;52.238;13.438;2022-08-21T14:34:12;24.60;86.60
11474;DHT22;5793;52.238;13.438;2022-08-21T14:36:46;24.60;90.00
11474;DHT22;5793;52.238;13.438;2022-08-21T14:39:14;24.60;87.50
11474;DHT22;5793;52.238;13.438;2022-08-21T14:41:42;24.50;90.00
11474;DHT22;5793;52.238;13.438;2022-08-21T14:44:12;24.40;90.40
11474;DHT22;5793;52.238;13.438;2022-08-21T14:46:41;24.30;92.20
11474;DHT22;5793;52.238;13.438;2022-08-21T14:49:24;24.20;93.10
11474;DHT22;5793;52.238;13.438;2022-08-21T14:51:54;24.10;95.00
11474;DHT22;5793;52.238;13.438;2022-08-21T14:54:25;24.20;95.90
11474;DHT22;5793;52.238;13.438;2022-08-21T14:56:59;24.20;95.20
11474;DHT22;5793;52.238;13.438;2022-08-21T14:59:28;24.20;96.70
11474;DHT22;5793;52.238;13.438;2022-08-21T15:01:56;24.20;99.90
11474;DHT22;5793;52.238;13.438;2022-08-21T15:04:25;24.20;98.10
11474;DHT22;5793;52.238;13.438;2022-08-21T15:06:53;24.10;99.90
11474;DHT22;5793;52.238;13.438;2022-08-21T15:09:21;24.10;99.90
11474;DHT22;5793;52.238;13.438;2022-08-21T15:11:51;24.00;99.50
11474;DHT22;5793;52.238;13.438;2022-08-21T15:14:21;23.90;98.40
11474;DHT22;5793;52.238;13.438;2022-08-21T15:16:50;23.80;98.20
11474;DHT22;5793;52.238;13.438;2022-08-21T15:19:19;23.80;99.60
11474;DHT22;5793;52.238;13.438;2022-08-21T15:21:48;23.70;99.90
11474;DHT22;5793;52.238;13.438;2022-08-21T15:24:16;23.70;99.90
11474;DHT22;5793;52.238;13.438;2022-08-21T15:26:45;23.50;99.90
11474;DHT22;5793;52.238;13.438;2022-08-21T15:29:13;23.40;99.90
11474;DHT22;5793;52.238;13.438;2022-08-21T15:31:53;23.30;99.90
11474;DHT22;5793;52.238;13.438;2022-08-21T15:34:22;23.10;99.90
11474;DHT22;5793;52.238;13.438;2022-08-21T15:36:56;23.10;99.90
11474;DHT22;5793;52.238;13.438;2022-08-21T15:39:25;23.10;99.90
11474;DHT22;5793;52.238;13.438;2022-08-21T15:41:57;23.00;99.90
11474;DHT22;5793;52.238;13.438;2022-08-21T15:44:31;23.00;99.90
11474;DHT22;5793;52.238;13.438;2022-08-21T15:46:59;22.80;99.90
11474;DHT22;5793;52.238;13.438;2022-08-21T15:49:27;22.80;99.90
11474;DHT22;5793;52.238;13.438;2022-08-21T15:51:57;22.80;99.90
11474;DHT22;5793;52.238;13.438;2022-08-21T15:54:25;22.70;99.90